sensor_id;sensor_type;location;lat;lon;timestamp;P1;durP1;ratioP1;P2;durP2;ratioP2
50631;SDS011;49583;45.590;-122.498;2024-01-30T00:01:49;1.00;;;0.90;;
50631;SDS011;49583;45.590;-122.498;2024-01-30T00:04:03;1.00;;;0.90;;
50631;SDS011;49583;45.590;-122.498;2024-01-30T00:06:17;1.00;;;1.00;;
50631;SDS011;49583;45.590;-122.498;2024-01-30T00:08:31;1.20;;;1.00;;
50631;SDS011;49583;45.590;-122.498;2024-01-30T00:10:44;1.20;;;1.00;;
50631;SDS011;49583;45.590;-122.498;2024-01-30T00:12:57;1.10;;;0.90;;
50631;SDS011;49583;45.590;-122.498;2024-01-30T00:15:11;1.40;;;1.30;;
50631;SDS011;49583;45.590;-122.498;2024-01-30T00:17:24;1.20;;;1.00;;
50631;SDS011;49583;45.590;-122.498;2024-01-30T00:19:38;1.70;;;1.20;;
50631;SDS011;49583;45.590;-122.498;2024-01-30T00:21:51;1.30;;;1.00;;
50631;SDS011;49583;45.590;-122.498;2024-01-30T00:24:04;1.10;;;0.90;;
50631;SDS011;49583;45.590;-122.498;2024-01-30T00:26:17;1.30;;;1.20;;
50631;SDS011;49583;45.590;-122.498;2024-01-30T00:28:30;1.80;;;1.30;;
50631;SDS011;49583;45.590;-122.498;2024-01-30T00:30:44;1.10;;;0.90;;
50631;SDS011;49583;45.590;-122.498;2024-01-30T00:32:57;1.10;;;1.00;;
50631;SDS011;49583;45.590;-122.498;2024-01-30T00:35:10;1.00;;;0.90;;
50631;SDS011;49583;45.590;-122.498;2024-01-30T00:37:23;3.10;;;1.40;;
50631;SDS011;49583;45.590;-122.498;2024-01-30T00:39:35;1.40;;;1.10;;
50631;SDS011;49583;45.590;-122.498;2024-01-30T00:41:49;1.70;;;0.80;;
50631;SDS011;49583;45.590;-122.498;2024-01-30T00:44:01;1.30;;;0.80;;
50631;SDS011;49583;45.590;-122.498;2024-01-30T00:46:14;3.90;;;1.10;;
50631;SDS011;49583;45.590;-122.498;2024-01-30T00:48:27;1.20;;;1.10;;
50631;SDS011;49583;45.590;-122.498;2024-01-30T00:50:40;2.60;;;1.40;;
50631;SDS011;49583;45.590;-122.498;2024-01-30T00:52:53;1.10;;;0.90;;
50631;SDS011;49583;45.590;-122.498;2024-01-30T00:55:06;1.60;;;1.30;;
50631;SDS011;49583;45.590;-122.498;2024-01-30T00:57:20;1.20;;;1.10;;
50631;SDS011;49583;45.590;-122.498;2024-01-30T00:59:33;1.10;;;1.00;;
50631;SDS011;49583;45.590;-122.498;2024-01-30T01:01:46;1.10;;;1.00;;
50631;SDS011;49583;45.590;-122.498;2024-01-30T01:03:59;2.10;;;1.00;;
50631;SDS011;49583;45.590;-122.498;2024-01-30T01:06:12;0.80;;;0.80;;
50631;SDS011;49583;45.590;-122.498;2024-01-30T01:08:24;1.00;;;0.80;;
50631;SDS011;49583;45.590;-122.498;2024-01-30T01:10:37;1.30;;;1.20;;
50631;SDS011;49583;45.590;-122.498;2024-01-30T01:12:50;1.00;;;0.90;;
50631;SDS011;49583;45.590;-122.498;2024-01-30T01:15:03;2.30;;;1.00;;
50631;SDS011;49583;45.590;-122.498;2024-01-30T01:17:19;0.90;;;0.80;;
50631;SDS011;49583;45.590;-122.498;2024-01-30T01:19:32;1.20;;;1.10;;
50631;SDS011;49583;45.590;-122.498;2024-01-30T01:21:45;1.20;;;1.10;;
50631;SDS011;49583;45.590;-122.498;2024-01-30T01:23:58;1.20;;;1.10;;
50631;SDS011;49583;45.590;-122.498;2024-01-30T01:26:11;0.80;;;0.80;;
50631;SDS011;49583;45.590;-122.498;2024-01-30T01:28:24;1.30;;;1.00;;
50631;SDS011;49583;45.590;-122.498;2024-01-30T01:30:37;1.40;;;1.00;;
50631;SDS011;49583;45.590;-122.498;2024-01-30T01:32:50;5.30;;;1.30;;
50631;SDS011;49583;45.590;-122.498;2024-01-30T01:35:05;2.40;;;1.20;;
50631;SDS011;49583;45.590;-122.498;2024-01-30T01:37:19;2.30;;;1.00;;
50631;SDS011;49583;45.590;-122.498;2024-01-30T01:39:34;4.20;;;1.50;;
50631;SDS011;49583;45.590;-122.498;2024-01-30T01:41:48;3.10;;;1.40;;
50631;SDS011;49583;45.590;-122.498;2024-01-30T01:44:00;4.60;;;1.50;;
50631;SDS011;49583;45.590;-122.498;2024-01-30T01:46:13;2.30;;;1.30;;
50631;SDS011;49583;45.590;-122.498;2024-01-30T01:48:27;4.90;;;1.40;;
50631;SDS011;49583;45.590;-122.498;2024-01-30T01:50:40;2.50;;;1.90;;
50631;SDS011;49583;45.590;-122.498;2024-01-30T01:52:54;2.10;;;1.90;;
50631;SDS011;49583;45.590;-122.498;2024-01-30T01:55:08;2.50;;;2.30;;
50631;SDS011;49583;45.590;-122.498;2024-01-30T01:57:21;2.40;;;2.10;;
50631;SDS011;49583;45.590;-122.498;2024-01-30T01:59:34;3.80;;;1.80;;
50631;SDS011;49583;45.590;-122.498;2024-01-30T02:01:48;4.10;;;1.50;;
50631;SDS011;49583;45.590;-122.498;2024-01-30T02:04:02;1.80;;;1.30;;
50631;SDS011;49583;45.590;-122.498;2024-01-30T02:06:15;0.90;;;0.80;;
50631;SDS011;49583;45.590;-122.498;2024-01-30T02:08:29;1.10;;;1.00;;
50631;SDS011;49583;45.590;-122.498;2024-01-30T02:10:43;1.00;;;0.90;;
50631;SDS011;49583;45.590;-122.498;2024-01-30T02:12:56;1.10;;;0.90;;
50631;SDS011;49583;45.590;-122.498;2024-01-30T02:15:12;0.90;;;0.90;;
50631;SDS011;49583;45.590;-122.498;2024-01-30T02:17:26;0.90;;;0.90;;
50631;SDS011;49583;45.590;-122.498;2024-01-30T02:19:38;0.90;;;0.90;;
50631;SDS011;49583;45.590;-122.498;2024-01-30T02:21:51;2.60;;;1.10;;
50631;SDS011;49583;45.590;-122.498;2024-01-30T02:24:06;1.90;;;0.90;;
50631;SDS011;49583;45.590;-122.498;2024-01-30T02:26:18;1.00;;;0.90;;
50631;SDS011;49583;45.590;-122.498;2024-01-30T02:28:32;1.00;;;0.90;;
50631;SDS011;49583;45.590;-122.498;2024-01-30T02:30:45;0.80;;;0.80;;
50631;SDS011;49583;45.590;-122.498;2024-01-30T02:32:58;1.20;;;1.10;;
50631;SDS011;49583;45.590;-122.498;2024-01-30T02:35:12;1.10;;;1.00;;
50631;SDS011;49583;45.590;-122.498;2024-01-30T02:37:24;1.00;;;1.00;;
50631;SDS011;49583;45.590;-122.498;2024-01-30T02:39:38;1.20;;;1.10;;
50631;SDS011;49583;45.590;-122.498;2024-01-30T02:41:51;0.90;;;0.90;;
50631;SDS011;49583;45.590;-122.498;2024-01-30T02:44:04;1.30;;;1.20;;
50631;SDS011;49583;45.590;-122.498;2024-01-30T02:46:18;1.90;;;0.90;;
50631;SDS011;49583;45.590;-122.498;2024-01-30T02:48:31;1.20;;;1.10;;
50631;SDS011;49583;45.590;-122.498;2024-01-30T02:50:46;1.20;;;1.10;;
50631;SDS011;49583;45.590;-122.498;2024-01-30T02:52:59;1.20;;;1.10;;
50631;SDS011;49583;45.590;-122.498;2024-01-30T02:55:12;1.00;;;0.90;;
50631;SDS011;49583;45.590;-122.498;2024-01-30T02:57:26;1.00;;;0.90;;
50631;SDS011;49583;45.590;-122.498;2024-01-30T02:59:38;1.20;;;1.10;;
50631;SDS011;49583;45.590;-122.498;2024-01-30T03:01:51;1.30;;;1.10;;
50631;SDS011;49583;45.590;-122.498;2024-01-30T03:04:05;1.40;;;0.90;;
50631;SDS011;49583;45.590;-122.498;2024-01-30T03:06:18;2.80;;;1.10;;
50631;SDS011;49583;45.590;-122.498;2024-01-30T03:08:30;1.30;;;1.20;;
50631;SDS011;49583;45.590;-122.498;2024-01-30T03:10:43;1.00;;;0.90;;
50631;SDS011;49583;45.590;-122.498;2024-01-30T03:12:56;1.20;;;1.10;;
50631;SDS011;49583;45.590;-122.498;2024-01-30T03:15:10;1.90;;;1.30;;
50631;SDS011;49583;45.590;-122.498;2024-01-30T03:17:23;0.90;;;0.90;;
50631;SDS011;49583;45.590;-122.498;2024-01-30T03:19:36;2.10;;;1.20;;
50631;SDS011;49583;45.590;-122.498;2024-01-30T03:21:50;1.10;;;1.00;;
50631;SDS011;49583;45.590;-122.498;2024-01-30T03:24:03;1.40;;;1.30;;
50631;SDS011;49583;45.590;-122.498;2024-01-30T03:26:17;1.10;;;0.80;;
50631;SDS011;49583;45.590;-122.498;2024-01-30T03:28:30;1.50;;;1.20;;
50631;SDS011;49583;45.590;-122.498;2024-01-30T03:30:43;1.30;;;1.20;;
50631;SDS011;49583;45.590;-122.498;2024-01-30T03:32:57;1.40;;;1.00;;
50631;SDS011;49583;45.590;-122.498;2024-01-30T03:35:10;1.50;;;1.10;;
50631;SDS011;49583;45.590;-122.498;2024-01-30T03:37:23;2.30;;;1.10;;
50631;SDS011;49583;45.590;-122.498;2024-01-30T03:39:36;1.40;;;1.30;;
50631;SDS011;49583;45.590;-122.498;2024-01-30T03:41:49;1.00;;;1.00;;
50631;SDS011;49583;45.590;-122.498;2024-01-30T03:44:02;1.80;;;1.00;;
50631;SDS011;49583;45.590;-122.498;2024-01-30T03:46:16;1.20;;;1.10;;
50631;SDS011;49583;45.590;-122.498;2024-01-30T03:48:28;9.00;;;1.40;;
50631;SDS011;49583;45.590;-122.498;2024-01-30T03:50:41;1.60;;;0.90;;
50631;SDS011;49583;45.590;-122.498;2024-01-30T03:52:55;1.80;;;1.00;;
50631;SDS011;49583;45.590;-122.498;2024-01-30T03:55:08;1.00;;;0.90;;
50631;SDS011;49583;45.590;-122.498;2024-01-30T03:57:22;1.20;;;0.90;;
50631;SDS011;49583;45.590;-122.498;2024-01-30T03:59:35;1.10;;;1.00;;
50631;SDS011;49583;45.590;-122.498;2024-01-30T04:01:48;1.30;;;1.10;;
50631;SDS011;49583;45.590;-122.498;2024-01-30T04:04:01;1.40;;;1.30;;
50631;SDS011;49583;45.590;-122.498;2024-01-30T04:06:15;1.20;;;1.10;;
50631;SDS011;49583;45.590;-122.498;2024-01-30T04:08:28;1.20;;;1.10;;
50631;SDS011;49583;45.590;-122.498;2024-01-30T04:10:41;1.50;;;1.40;;
50631;SDS011;49583;45.590;-122.498;2024-01-30T04:12:54;1.40;;;1.30;;
50631;SDS011;49583;45.590;-122.498;2024-01-30T04:15:07;1.60;;;1.30;;
50631;SDS011;49583;45.590;-122.498;2024-01-30T04:17:21;1.40;;;1.20;;
50631;SDS011;49583;45.590;-122.498;2024-01-30T04:19:36;1.30;;;1.20;;
50631;SDS011;49583;45.590;-122.498;2024-01-30T04:21:49;1.70;;;1.40;;
50631;SDS011;49583;45.590;-122.498;2024-01-30T04:24:02;1.60;;;1.30;;
50631;SDS011;49583;45.590;-122.498;2024-01-30T04:26:15;1.40;;;1.30;;
50631;SDS011;49583;45.590;-122.498;2024-01-30T04:28:30;1.40;;;1.30;;
50631;SDS011;49583;45.590;-122.498;2024-01-30T04:30:42;3.30;;;1.80;;
50631;SDS011;49583;45.590;-122.498;2024-01-30T04:32:55;1.50;;;1.10;;
50631;SDS011;49583;45.590;-122.498;2024-01-30T04:35:08;1.40;;;1.20;;
50631;SDS011;49583;45.590;-122.498;2024-01-30T04:37:22;1.60;;;1.50;;
50631;SDS011;49583;45.590;-122.498;2024-01-30T04:39:35;1.60;;;1.30;;
50631;SDS011;49583;45.590;-122.498;2024-01-30T04:41:48;2.40;;;1.20;;
50631;SDS011;49583;45.590;-122.498;2024-01-30T04:44:03;1.40;;;1.20;;
50631;SDS011;49583;45.590;-122.498;2024-01-30T04:46:16;4.20;;;1.70;;
50631;SDS011;49583;45.590;-122.498;2024-01-30T04:48:29;1.70;;;1.60;;
50631;SDS011;49583;45.590;-122.498;2024-01-30T04:50:42;1.60;;;1.20;;
50631;SDS011;49583;45.590;-122.498;2024-01-30T04:52:55;1.60;;;1.40;;
50631;SDS011;49583;45.590;-122.498;2024-01-30T04:55:08;1.50;;;1.20;;
50631;SDS011;49583;45.590;-122.498;2024-01-30T04:57:21;1.50;;;1.40;;
50631;SDS011;49583;45.590;-122.498;2024-01-30T04:59:34;1.50;;;1.30;;
50631;SDS011;49583;45.590;-122.498;2024-01-30T05:01:47;1.30;;;1.20;;
50631;SDS011;49583;45.590;-122.498;2024-01-30T05:04:00;1.80;;;1.70;;
50631;SDS011;49583;45.590;-122.498;2024-01-30T05:06:13;1.30;;;1.20;;
50631;SDS011;49583;45.590;-122.498;2024-01-30T05:08:33;1.60;;;1.40;;
50631;SDS011;49583;45.590;-122.498;2024-01-30T05:10:46;1.40;;;1.30;;
50631;SDS011;49583;45.590;-122.498;2024-01-30T05:12:58;1.40;;;1.30;;
50631;SDS011;49583;45.590;-122.498;2024-01-30T05:15:12;1.40;;;1.30;;
50631;SDS011;49583;45.590;-122.498;2024-01-30T05:17:25;1.30;;;1.20;;
50631;SDS011;49583;45.590;-122.498;2024-01-30T05:19:38;1.90;;;1.60;;
50631;SDS011;49583;45.590;-122.498;2024-01-30T05:21:52;2.50;;;1.70;;
50631;SDS011;49583;45.590;-122.498;2024-01-30T05:24:06;1.90;;;1.60;;
50631;SDS011;49583;45.590;-122.498;2024-01-30T05:26:18;1.40;;;1.30;;
50631;SDS011;49583;45.590;-122.498;2024-01-30T05:28:31;1.80;;;1.70;;
50631;SDS011;49583;45.590;-122.498;2024-01-30T05:30:45;1.60;;;1.50;;
50631;SDS011;49583;45.590;-122.498;2024-01-30T05:33:01;1.60;;;1.50;;
50631;SDS011;49583;45.590;-122.498;2024-01-30T05:35:14;2.60;;;1.60;;
50631;SDS011;49583;45.590;-122.498;2024-01-30T05:37:28;2.80;;;1.30;;
50631;SDS011;49583;45.590;-122.498;2024-01-30T05:39:41;2.10;;;1.30;;
50631;SDS011;49583;45.590;-122.498;2024-01-30T05:41:53;1.70;;;1.60;;
50631;SDS011;49583;45.590;-122.498;2024-01-30T05:44:06;1.40;;;1.20;;
50631;SDS011;49583;45.590;-122.498;2024-01-30T05:46:20;1.30;;;1.00;;
50631;SDS011;49583;45.590;-122.498;2024-01-30T05:48:33;1.40;;;1.30;;
50631;SDS011;49583;45.590;-122.498;2024-01-30T05:50:46;1.30;;;1.70;;
50631;SDS011;49583;45.590;-122.498;2024-01-30T05:52:59;1.40;;;1.30;;
50631;SDS011;49583;45.590;-122.498;2024-01-30T05:55:12;1.70;;;1.30;;
50631;SDS011;49583;45.590;-122.498;2024-01-30T05:57:25;1.50;;;1.30;;
50631;SDS011;49583;45.590;-122.498;2024-01-30T05:59:38;1.40;;;1.30;;
50631;SDS011;49583;45.590;-122.498;2024-01-30T06:01:51;2.70;;;1.50;;
50631;SDS011;49583;45.590;-122.498;2024-01-30T06:04:04;2.90;;;1.50;;
50631;SDS011;49583;45.590;-122.498;2024-01-30T06:06:17;1.90;;;1.70;;
50631;SDS011;49583;45.590;-122.498;2024-01-30T06:08:30;1.60;;;1.50;;
50631;SDS011;49583;45.590;-122.498;2024-01-30T06:10:43;1.90;;;1.70;;
50631;SDS011;49583;45.590;-122.498;2024-01-30T06:12:55;2.20;;;1.90;;
50631;SDS011;49583;45.590;-122.498;2024-01-30T06:15:09;1.60;;;1.50;;
50631;SDS011;49583;45.590;-122.498;2024-01-30T06:17:23;2.10;;;1.80;;
50631;SDS011;49583;45.590;-122.498;2024-01-30T06:19:35;1.60;;;1.50;;
50631;SDS011;49583;45.590;-122.498;2024-01-30T06:21:48;1.80;;;1.60;;
50631;SDS011;49583;45.590;-122.498;2024-01-30T06:24:01;2.00;;;1.60;;
50631;SDS011;49583;45.590;-122.498;2024-01-30T06:26:15;2.00;;;1.80;;
50631;SDS011;49583;45.590;-122.498;2024-01-30T06:28:27;1.60;;;1.50;;
50631;SDS011;49583;45.590;-122.498;2024-01-30T06:30:40;2.90;;;1.50;;
50631;SDS011;49583;45.590;-122.498;2024-01-30T06:32:53;2.30;;;1.30;;
50631;SDS011;49583;45.590;-122.498;2024-01-30T06:35:06;3.50;;;1.70;;
50631;SDS011;49583;45.590;-122.498;2024-01-30T06:37:20;3.60;;;2.20;;
50631;SDS011;49583;45.590;-122.498;2024-01-30T06:39:33;1.80;;;1.60;;
50631;SDS011;49583;45.590;-122.498;2024-01-30T06:41:46;1.70;;;1.60;;
50631;SDS011;49583;45.590;-122.498;2024-01-30T06:43:59;2.00;;;1.80;;
50631;SDS011;49583;45.590;-122.498;2024-01-30T06:46:14;2.00;;;1.80;;
50631;SDS011;49583;45.590;-122.498;2024-01-30T06:48:27;1.40;;;1.30;;
50631;SDS011;49583;45.590;-122.498;2024-01-30T06:50:40;1.50;;;1.40;;
50631;SDS011;49583;45.590;-122.498;2024-01-30T06:52:54;2.00;;;1.80;;
50631;SDS011;49583;45.590;-122.498;2024-01-30T06:55:07;1.60;;;1.40;;
50631;SDS011;49583;45.590;-122.498;2024-01-30T06:57:21;1.60;;;1.30;;
50631;SDS011;49583;45.590;-122.498;2024-01-30T06:59:35;1.70;;;1.60;;
50631;SDS011;49583;45.590;-122.498;2024-01-30T07:01:51;1.70;;;1.60;;
50631;SDS011;49583;45.590;-122.498;2024-01-30T07:04:04;1.50;;;1.40;;
50631;SDS011;49583;45.590;-122.498;2024-01-30T07:06:17;1.40;;;1.30;;
50631;SDS011;49583;45.590;-122.498;2024-01-30T07:08:30;2.00;;;1.80;;
50631;SDS011;49583;45.590;-122.498;2024-01-30T07:10:42;2.10;;;1.60;;
50631;SDS011;49583;45.590;-122.498;2024-01-30T07:12:55;1.60;;;1.50;;
50631;SDS011;49583;45.590;-122.498;2024-01-30T07:15:10;1.80;;;1.60;;
50631;SDS011;49583;45.590;-122.498;2024-01-30T07:17:27;8.10;;;1.80;;
50631;SDS011;49583;45.590;-122.498;2024-01-30T07:19:40;2.20;;;1.70;;
50631;SDS011;49583;45.590;-122.498;2024-01-30T07:21:53;1.90;;;1.70;;
50631;SDS011;49583;45.590;-122.498;2024-01-30T07:24:06;1.90;;;1.70;;
50631;SDS011;49583;45.590;-122.498;2024-01-30T07:26:18;2.10;;;1.70;;
50631;SDS011;49583;45.590;-122.498;2024-01-30T07:28:31;1.80;;;1.70;;
50631;SDS011;49583;45.590;-122.498;2024-01-30T07:30:44;2.30;;;1.80;;
50631;SDS011;49583;45.590;-122.498;2024-01-30T07:32:58;1.90;;;1.50;;
50631;SDS011;49583;45.590;-122.498;2024-01-30T07:35:11;1.80;;;1.60;;
50631;SDS011;49583;45.590;-122.498;2024-01-30T07:37:25;1.80;;;1.50;;
50631;SDS011;49583;45.590;-122.498;2024-01-30T07:39:37;1.90;;;1.70;;
50631;SDS011;49583;45.590;-122.498;2024-01-30T07:41:50;5.10;;;2.00;;
50631;SDS011;49583;45.590;-122.498;2024-01-30T07:44:03;1.60;;;1.50;;
50631;SDS011;49583;45.590;-122.498;2024-01-30T07:46:16;1.50;;;1.40;;
50631;SDS011;49583;45.590;-122.498;2024-01-30T07:48:28;1.60;;;1.50;;
50631;SDS011;49583;45.590;-122.498;2024-01-30T07:50:45;1.60;;;1.50;;
50631;SDS011;49583;45.590;-122.498;2024-01-30T07:52:59;1.40;;;1.30;;
50631;SDS011;49583;45.590;-122.498;2024-01-30T07:55:12;1.40;;;1.30;;
50631;SDS011;49583;45.590;-122.498;2024-01-30T07:57:25;1.70;;;1.60;;
50631;SDS011;49583;45.590;-122.498;2024-01-30T07:59:38;2.50;;;1.90;;
50631;SDS011;49583;45.590;-122.498;2024-01-30T08:01:51;1.40;;;1.30;;
50631;SDS011;49583;45.590;-122.498;2024-01-30T08:04:04;2.20;;;1.50;;
50631;SDS011;49583;45.590;-122.498;2024-01-30T08:06:17;1.70;;;1.60;;
50631;SDS011;49583;45.590;-122.498;2024-01-30T08:08:33;1.40;;;1.30;;
50631;SDS011;49583;45.590;-122.498;2024-01-30T08:10:46;1.20;;;1.10;;
50631;SDS011;49583;45.590;-122.498;2024-01-30T08:12:59;1.80;;;1.60;;
50631;SDS011;49583;45.590;-122.498;2024-01-30T08:15:12;1.40;;;1.30;;
50631;SDS011;49583;45.590;-122.498;2024-01-30T08:17:25;1.60;;;1.40;;
50631;SDS011;49583;45.590;-122.498;2024-01-30T08:19:37;1.50;;;1.40;;
50631;SDS011;49583;45.590;-122.498;2024-01-30T08:21:50;1.50;;;1.40;;
50631;SDS011;49583;45.590;-122.498;2024-01-30T08:24:03;2.20;;;1.10;;
50631;SDS011;49583;45.590;-122.498;2024-01-30T08:26:17;1.60;;;1.20;;
50631;SDS011;49583;45.590;-122.498;2024-01-30T08:28:30;1.60;;;1.20;;
50631;SDS011;49583;45.590;-122.498;2024-01-30T08:30:43;1.40;;;1.30;;
50631;SDS011;49583;45.590;-122.498;2024-01-30T08:32:56;1.50;;;1.40;;
50631;SDS011;49583;45.590;-122.498;2024-01-30T08:35:09;2.00;;;1.70;;
50631;SDS011;49583;45.590;-122.498;2024-01-30T08:37:24;1.70;;;1.50;;
50631;SDS011;49583;45.590;-122.498;2024-01-30T08:39:37;1.90;;;1.70;;
50631;SDS011;49583;45.590;-122.498;2024-01-30T08:41:50;1.60;;;1.40;;
50631;SDS011;49583;45.590;-122.498;2024-01-30T08:44:02;2.50;;;1.60;;
50631;SDS011;49583;45.590;-122.498;2024-01-30T08:46:16;1.90;;;1.80;;
50631;SDS011;49583;45.590;-122.498;2024-01-30T08:48:30;2.20;;;2.00;;
50631;SDS011;49583;45.590;-122.498;2024-01-30T08:50:43;3.10;;;2.10;;
50631;SDS011;49583;45.590;-122.498;2024-01-30T08:52:56;2.20;;;2.00;;
50631;SDS011;49583;45.590;-122.498;2024-01-30T08:55:10;2.30;;;2.10;;
50631;SDS011;49583;45.590;-122.498;2024-01-30T08:57:23;2.20;;;2.00;;
50631;SDS011;49583;45.590;-122.498;2024-01-30T08:59:37;3.30;;;2.30;;
50631;SDS011;49583;45.590;-122.498;2024-01-30T09:01:52;2.20;;;1.90;;
50631;SDS011;49583;45.590;-122.498;2024-01-30T09:04:18;2.40;;;2.20;;
50631;SDS011;49583;45.590;-122.498;2024-01-30T09:06:31;2.60;;;2.40;;
50631;SDS011;49583;45.590;-122.498;2024-01-30T09:08:47;2.80;;;2.30;;
50631;SDS011;49583;45.590;-122.498;2024-01-30T09:10:59;3.30;;;2.20;;
50631;SDS011;49583;45.590;-122.498;2024-01-30T09:13:18;2.30;;;2.10;;
50631;SDS011;49583;45.590;-122.498;2024-01-30T09:15:31;4.00;;;2.40;;
50631;SDS011;49583;45.590;-122.498;2024-01-30T09:17:43;2.20;;;2.00;;
50631;SDS011;49583;45.590;-122.498;2024-01-30T09:19:56;2.40;;;2.10;;
50631;SDS011;49583;45.590;-122.498;2024-01-30T09:22:09;2.70;;;2.00;;
50631;SDS011;49583;45.590;-122.498;2024-01-30T09:24:22;2.40;;;2.20;;
50631;SDS011;49583;45.590;-122.498;2024-01-30T09:26:35;2.40;;;1.80;;
50631;SDS011;49583;45.590;-122.498;2024-01-30T09:28:47;2.50;;;2.10;;
50631;SDS011;49583;45.590;-122.498;2024-01-30T09:31:00;3.40;;;2.40;;
50631;SDS011;49583;45.590;-122.498;2024-01-30T09:33:14;3.70;;;2.10;;
50631;SDS011;49583;45.590;-122.498;2024-01-30T09:35:27;4.40;;;2.00;;
50631;SDS011;49583;45.590;-122.498;2024-01-30T09:37:41;2.70;;;2.40;;
50631;SDS011;49583;45.590;-122.498;2024-01-30T09:39:54;2.50;;;2.30;;
50631;SDS011;49583;45.590;-122.498;2024-01-30T09:42:09;2.60;;;1.80;;
50631;SDS011;49583;45.590;-122.498;2024-01-30T09:44:27;2.10;;;1.50;;
50631;SDS011;49583;45.590;-122.498;2024-01-30T09:46:42;2.10;;;1.90;;
50631;SDS011;49583;45.590;-122.498;2024-01-30T09:48:57;2.20;;;1.70;;
50631;SDS011;49583;45.590;-122.498;2024-01-30T09:51:10;2.10;;;1.90;;
50631;SDS011;49583;45.590;-122.498;2024-01-30T09:53:24;1.90;;;1.70;;
50631;SDS011;49583;45.590;-122.498;2024-01-30T09:55:37;2.40;;;1.90;;
50631;SDS011;49583;45.590;-122.498;2024-01-30T09:57:53;2.40;;;1.70;;
50631;SDS011;49583;45.590;-122.498;2024-01-30T10:00:06;2.20;;;1.90;;
50631;SDS011;49583;45.590;-122.498;2024-01-30T10:02:21;2.20;;;2.00;;
50631;SDS011;49583;45.590;-122.498;2024-01-30T10:04:34;2.10;;;1.50;;
50631;SDS011;49583;45.590;-122.498;2024-01-30T10:06:47;3.00;;;2.40;;
50631;SDS011;49583;45.590;-122.498;2024-01-30T10:09:01;2.30;;;2.10;;
50631;SDS011;49583;45.590;-122.498;2024-01-30T10:11:14;2.40;;;2.00;;
50631;SDS011;49583;45.590;-122.498;2024-01-30T10:13:27;3.00;;;2.20;;
50631;SDS011;49583;45.590;-122.498;2024-01-30T10:15:40;1.80;;;1.60;;
50631;SDS011;49583;45.590;-122.498;2024-01-30T10:17:54;2.20;;;2.00;;
50631;SDS011;49583;45.590;-122.498;2024-01-30T10:20:08;2.60;;;2.40;;
50631;SDS011;49583;45.590;-122.498;2024-01-30T10:22:21;2.80;;;2.10;;
50631;SDS011;49583;45.590;-122.498;2024-01-30T10:24:35;3.00;;;2.50;;
50631;SDS011;49583;45.590;-122.498;2024-01-30T10:26:48;1.70;;;1.60;;
50631;SDS011;49583;45.590;-122.498;2024-01-30T10:29:01;1.80;;;1.60;;
50631;SDS011;49583;45.590;-122.498;2024-01-30T10:31:18;2.90;;;2.10;;
50631;SDS011;49583;45.590;-122.498;2024-01-30T10:33:32;2.70;;;2.10;;
50631;SDS011;49583;45.590;-122.498;2024-01-30T10:35:45;2.20;;;2.00;;
50631;SDS011;49583;45.590;-122.498;2024-01-30T10:37:58;2.10;;;1.90;;
50631;SDS011;49583;45.590;-122.498;2024-01-30T10:40:12;2.30;;;2.00;;
50631;SDS011;49583;45.590;-122.498;2024-01-30T10:42:26;3.90;;;2.30;;
50631;SDS011;49583;45.590;-122.498;2024-01-30T10:44:43;2.40;;;2.10;;
50631;SDS011;49583;45.590;-122.498;2024-01-30T10:50:37;2.20;;;2.00;;
50631;SDS011;49583;45.590;-122.498;2024-01-30T10:53:02;2.20;;;2.00;;
50631;SDS011;49583;45.590;-122.498;2024-01-30T10:55:18;2.20;;;2.00;;
50631;SDS011;49583;45.590;-122.498;2024-01-30T10:57:31;2.00;;;1.80;;
50631;SDS011;49583;45.590;-122.498;2024-01-30T10:59:47;2.10;;;1.90;;
50631;SDS011;49583;45.590;-122.498;2024-01-30T11:02:01;2.00;;;1.80;;
50631;SDS011;49583;45.590;-122.498;2024-01-30T11:04:15;1.90;;;1.60;;
50631;SDS011;49583;45.590;-122.498;2024-01-30T11:06:28;1.90;;;1.70;;
50631;SDS011;49583;45.590;-122.498;2024-01-30T11:08:41;1.50;;;1.40;;
50631;SDS011;49583;45.590;-122.498;2024-01-30T11:10:56;1.80;;;1.60;;
50631;SDS011;49583;45.590;-122.498;2024-01-30T11:13:13;2.20;;;1.80;;
50631;SDS011;49583;45.590;-122.498;2024-01-30T11:15:29;2.00;;;1.80;;
50631;SDS011;49583;45.590;-122.498;2024-01-30T11:17:42;2.00;;;1.60;;
50631;SDS011;49583;45.590;-122.498;2024-01-30T11:20:00;1.60;;;1.50;;
50631;SDS011;49583;45.590;-122.498;2024-01-30T11:22:15;1.80;;;1.50;;
50631;SDS011;49583;45.590;-122.498;2024-01-30T11:24:30;1.90;;;1.60;;
50631;SDS011;49583;45.590;-122.498;2024-01-30T11:26:46;1.60;;;1.50;;
50631;SDS011;49583;45.590;-122.498;2024-01-30T11:29:06;1.50;;;1.40;;
50631;SDS011;49583;45.590;-122.498;2024-01-30T11:31:23;1.40;;;1.30;;
50631;SDS011;49583;45.590;-122.498;2024-01-30T11:33:36;1.80;;;1.60;;
50631;SDS011;49583;45.590;-122.498;2024-01-30T11:35:50;2.00;;;1.50;;
50631;SDS011;49583;45.590;-122.498;2024-01-30T11:38:03;1.80;;;1.60;;
50631;SDS011;49583;45.590;-122.498;2024-01-30T11:40:19;1.80;;;1.40;;
50631;SDS011;49583;45.590;-122.498;2024-01-30T11:42:33;1.50;;;1.40;;
50631;SDS011;49583;45.590;-122.498;2024-01-30T11:44:48;1.30;;;1.20;;
50631;SDS011;49583;45.590;-122.498;2024-01-30T11:47:11;1.40;;;1.10;;
50631;SDS011;49583;45.590;-122.498;2024-01-30T11:49:26;1.80;;;1.30;;
50631;SDS011;49583;45.590;-122.498;2024-01-30T11:51:43;1.50;;;1.40;;
50631;SDS011;49583;45.590;-122.498;2024-01-30T11:53:58;1.40;;;1.30;;
50631;SDS011;49583;45.590;-122.498;2024-01-30T11:56:23;2.30;;;1.40;;
50631;SDS011;49583;45.590;-122.498;2024-01-30T11:58:36;1.20;;;1.10;;
50631;SDS011;49583;45.590;-122.498;2024-01-30T12:00:56;2.60;;;1.70;;
50631;SDS011;49583;45.590;-122.498;2024-01-30T12:03:09;1.90;;;1.70;;
50631;SDS011;49583;45.590;-122.498;2024-01-30T12:05:23;1.50;;;1.30;;
50631;SDS011;49583;45.590;-122.498;2024-01-30T12:07:37;3.00;;;1.70;;
50631;SDS011;49583;45.590;-122.498;2024-01-30T12:09:54;1.70;;;1.60;;
50631;SDS011;49583;45.590;-122.498;2024-01-30T12:12:07;1.60;;;1.50;;
50631;SDS011;49583;45.590;-122.498;2024-01-30T12:14:22;1.50;;;1.40;;
50631;SDS011;49583;45.590;-122.498;2024-01-30T12:16:59;1.70;;;1.60;;
50631;SDS011;49583;45.590;-122.498;2024-01-30T12:19:12;1.60;;;1.40;;
50631;SDS011;49583;45.590;-122.498;2024-01-30T12:21:34;1.50;;;1.40;;
50631;SDS011;49583;45.590;-122.498;2024-01-30T12:23:50;1.80;;;1.70;;
50631;SDS011;49583;45.590;-122.498;2024-01-30T12:26:05;1.40;;;1.30;;
50631;SDS011;49583;45.590;-122.498;2024-01-30T12:28:18;1.30;;;1.20;;
50631;SDS011;49583;45.590;-122.498;2024-01-30T12:30:51;1.30;;;1.20;;
50631;SDS011;49583;45.590;-122.498;2024-01-30T12:33:31;1.70;;;1.50;;
50631;SDS011;49583;45.590;-122.498;2024-01-30T12:35:47;3.80;;;1.10;;
50631;SDS011;49583;45.590;-122.498;2024-01-30T12:38:29;2.10;;;1.50;;
50631;SDS011;49583;45.590;-122.498;2024-01-30T12:40:42;1.20;;;1.10;;
50631;SDS011;49583;45.590;-122.498;2024-01-30T12:42:59;1.50;;;1.40;;
50631;SDS011;49583;45.590;-122.498;2024-01-30T12:45:16;1.20;;;1.10;;
50631;SDS011;49583;45.590;-122.498;2024-01-30T12:47:33;1.30;;;1.20;;
50631;SDS011;49583;45.590;-122.498;2024-01-30T12:50:06;2.30;;;1.70;;
50631;SDS011;49583;45.590;-122.498;2024-01-30T12:52:31;2.30;;;1.80;;
50631;SDS011;49583;45.590;-122.498;2024-01-30T12:54:45;1.80;;;1.40;;
50631;SDS011;49583;45.590;-122.498;2024-01-30T12:56:58;1.60;;;1.40;;